Time;durP1;ratioP1;P1;durP2;ratioP2;P2;SDS_P1;SDS_P2;PMS_P1;PMS_P2;Temp;Humidity;BMP_temperature;BMP_pressure;BME280_temperature;BME280_humidity;BME280_pressure;Samples;Min_cycle;Max_cycle;Signal;HPM_P1;HPM_P2
2022/09/20 04:16:05;;;;;;;3.92;1.38;;;;;;;8.70;100.00;100811.16;5875416;23;20081;-76
2022/09/20 04:19:03;;;;;;;3.22;2.28;;;;;;;8.78;100.00;100830.84;5011233;28;20054;-76
2022/09/20 04:21:42;;;;;;;6.70;2.40;;;;;;;8.79;100.00;100827.19;5011498;28;20307;-75
2022/09/20 04:24:20;;;;;;;2.42;1.73;;;;;;;8.78;100.00;100823.72;5014113;28;20040;-75
2022/09/20 04:26:50;;;;;;;4.38;1.63;;;;;;;8.74;100.00;100826.81;5002244;28;20045;-75
2022/09/20 04:29:21;;;;;;;5.30;1.70;;;;;;;8.72;100.00;100832.25;4996109;28;20110;-78
2022/09/20 04:31:58;;;;;;;5.15;2.25;;;;;;;8.72;100.00;100826.94;4994078;28;20042;-77
2022/09/20 04:37:50;;;;;;;1.30;1.20;;;;;;;8.57;100.00;100818.63;4973666;28;20185;-77
2022/09/20 04:40:52;;;;;;;3.22;1.35;;;;;;;8.60;100.00;100831.63;4973365;28;20038;-77
2022/09/20 04:43:23;;;;;;;5.43;1.92;;;;;;;8.59;100.00;100824.63;4990267;28;20050;-78
2022/09/20 04:46:12;;;;;;;4.78;2.50;;;;;;;8.64;100.00;100832.16;4995508;28;20474;-76
2022/09/20 04:49:01;;;;;;;3.20;1.58;;;;;;;8.62;100.00;100820.88;4995149;28;20520;-77
2022/09/20 04:52:13;;;;;;;3.47;1.83;;;;;;;8.66;100.00;100828.38;4995009;28;20045;-77
2022/09/20 04:55:11;;;;;;;6.38;2.13;;;;;;;8.66;100.00;100833.69;4993912;28;20077;-75
2022/09/20 04:58:05;;;;;;;3.67;2.22;;;;;;;8.59;100.00;100842.38;4995306;28;20039;-76
2022/09/20 05:01:09;;;;;;;3.97;2.28;;;;;;;8.58;100.00;100844.22;4994863;28;20049;-77
2022/09/20 05:04:03;;;;;;;2.20;1.55;;;;;;;8.48;100.00;100847.91;4964551;28;20073;-76
2022/09/20 05:06:52;;;;;;;5.35;1.95;;;;;;;8.42;100.00;100847.50;4994972;28;20073;-76
2022/09/20 05:09:42;;;;;;;3.75;1.45;;;;;;;8.43;100.00;100849.16;4995001;28;20425;-77
2022/09/20 05:12:45;;;;;;;2.42;2.00;;;;;;;8.41;100.00;100856.44;4994689;28;20038;-77
2022/09/20 05:15:23;;;;;;;3.28;1.58;;;;;;;8.40;100.00;100854.75;4993459;28;20042;-77
2022/09/20 05:18:16;;;;;;;12.57;2.42;;;;;;;8.41;100.00;100853.78;4994706;28;20041;-76
2022/09/20 05:20:45;;;;;;;5.68;1.80;;;;;;;8.42;100.00;100865.25;4994513;28;20045;-77
2022/09/20 05:23:16;;;;;;;5.55;2.88;;;;;;;8.42;100.00;100865.25;4994579;28;20038;-76
2022/09/20 05:26:06;;;;;;;5.10;2.70;;;;;;;8.41;100.00;100872.38;4994628;28;20128;-76
2022/09/20 05:28:57;;;;;;;3.38;1.90;;;;;;;8.40;100.00;100875.97;4994798;28;20042;-77
2022/09/20 05:31:36;;;;;;;5.18;1.90;;;;;;;8.39;100.00;100879.63;4994416;28;20460;-77
2022/09/20 05:34:19;;;;;;;4.78;2.67;;;;;;;8.32;100.00;100870.53;4994386;28;20038;-77
2022/09/20 05:36:49;;;;;;;3.67;1.90;;;;;;;8.35;100.00;100874.72;4994502;28;20046;-77
2022/09/20 05:39:32;;;;;;;3.35;2.17;;;;;;;8.41;100.00;100880.34;4993138;28;20092;-77
2022/09/20 05:42:18;;;;;;;3.17;1.90;;;;;;;8.47;100.00;100873.59;4994434;28;20088;-77
2022/09/20 05:45:01;;;;;;;2.63;1.85;;;;;;;8.48;100.00;100864.66;4994258;28;20073;-77
2022/09/20 05:48:13;;;;;;;4.15;2.42;;;;;;;8.50;100.00;100861.88;4992926;28;20493;-76
2022/09/20 05:50:50;;;;;;;7.90;1.90;;;;;;;8.56;100.00;100862.13;4966540;28;20057;-77
2022/09/20 05:53:30;;;;;;;3.92;2.22;;;;;;;8.62;100.00;100868.66;4994155;28;20030;-76
2022/09/20 05:56:06;;;;;;;7.57;2.15;;;;;;;8.72;100.00;100871.28;4994038;28;20039;-75
2022/09/20 05:58:57;;;;;;;6.30;2.10;;;;;;;8.79;100.00;100870.53;4993956;28;20042;-77
2022/09/20 06:01:57;;;;;;;2.72;1.90;;;;;;;8.89;100.00;100878.47;4993735;28;20517;-76
2022/09/20 06:04:39;;;;;;;2.22;1.83;;;;;;;8.94;100.00;100884.19;4990844;28;20065;-77
2022/09/20 06:07:26;;;;;;;1.67;1.58;;;;;;;9.08;100.00;100885.53;4993835;28;20456;-76
2022/09/20 06:09:58;;;;;;;5.88;2.08;;;;;;;9.19;100.00;100887.97;4993832;28;20489;-66
2022/09/20 06:12:57;;;;;;;3.00;1.92;;;;;;;9.30;100.00;100885.09;4993866;28;20049;-64
2022/09/20 06:15:43;;;;;;;2.35;1.70;;;;;;;9.33;100.00;100884.81;4993558;28;20038;-64
2022/09/20 06:18:15;;;;;;;2.28;1.73;;;;;;;9.48;100.00;100888.63;4993763;28;20121;-64
2022/09/20 06:21:20;;;;;;;3.08;2.13;;;;;;;9.55;100.00;100883.53;4993617;28;20064;-64
2022/09/20 06:23:45;;;;;;;6.75;1.95;;;;;;;9.65;100.00;100888.78;4993580;28;20469;-64
2022/09/20 06:26:22;;;;;;;3.55;1.90;;;;;;;9.74;100.00;100885.22;4992249;28;20049;-65
2022/09/20 06:28:59;;;;;;;8.95;1.88;;;;;;;9.79;100.00;100878.47;4993594;28;20053;-65
2022/09/20 06:31:26;;;;;;;7.28;2.42;;;;;;;9.89;100.00;100883.69;4992176;28;20042;-62
2022/09/20 06:34:08;;;;;;;2.78;1.80;;;;;;;9.92;100.00;100883.41;4993529;28;20030;-64
2022/09/20 06:42:10;;;;;;;2.30;1.85;;;;;;;10.11;100.00;100894.88;4991809;28;20077;-64
2022/09/20 06:44:40;;;;;;;6.22;1.98;;;;;;;10.19;100.00;100887.75;4992551;28;20081;-64
2022/09/20 06:47:09;;;;;;;4.43;1.85;;;;;;;10.34;99.53;100898.72;4993202;28;20035;-65
2022/09/20 06:49:35;;;;;;;4.70;2.13;;;;;;;10.42;99.43;100911.25;4993132;28;20031;-64
2022/09/20 06:52:04;;;;;;;2.60;1.58;;;;;;;10.51;100.00;100908.50;4992911;28;20588;-62
2022/09/20 06:54:29;;;;;;;3.67;1.77;;;;;;;10.57;100.00;100907.03;4993353;28;20431;-65
2022/09/20 06:56:55;;;;;;;2.38;1.70;;;;;;;10.66;100.00;100905.25;4993112;28;20057;-63
2022/09/20 06:59:21;;;;;;;3.08;1.45;;;;;;;10.72;98.70;100910.78;4992929;28;20042;-64
2022/09/20 07:01:46;;;;;;;8.65;2.53;;;;;;;10.79;95.62;100909.16;4992632;28;20066;-63
2022/09/20 07:04:11;;;;;;;6.05;2.33;;;;;;;10.85;95.55;100913.00;4992712;28;20035;-63
2022/09/20 07:06:37;;;;;;;1.95;1.58;;;;;;;10.90;92.97;100913.38;4991508;28;20466;-65
2022/09/20 07:09:04;;;;;;;4.95;1.70;;;;;;;10.91;92.98;100909.72;4992871;28;20041;-65
2022/09/20 07:11:30;;;;;;;5.13;2.05;;;;;;;10.93;92.20;100909.53;4992443;28;20038;-66
2022/09/20 07:13:57;;;;;;;4.43;2.13;;;;;;;10.92;92.97;100911.38;4992801;28;20465;-66
2022/09/20 07:16:23;;;;;;;2.60;1.65;;;;;;;10.92;92.15;100915.88;4992577;28;20061;-65
2022/09/20 07:18:51;;;;;;;5.55;1.85;;;;;;;10.93;92.81;100913.03;4992613;28;20042;-65
2022/09/20 07:21:17;;;;;;;;;;;;;;;10.95;93.25;100918.22;4992775;28;20176;-66
2022/09/20 07:23:44;;;;;;;2.42;1.60;;;;;;;10.96;92.39;100907.41;4992428;28;19917;-65
2022/09/20 07:26:25;;;;;;;5.50;1.80;;;;;;;11.00;92.94;100908.75;4992404;28;20053;-68
2022/09/20 07:28:51;;;;;;;5.65;2.22;;;;;;;11.02;93.72;100901.44;4992498;28;20516;-65
2022/09/20 07:31:18;;;;;;;1.38;1.27;;;;;;;11.08;95.09;100918.59;4990944;28;20058;-65
2022/09/20 07:33:43;;;;;;;2.88;1.48;;;;;;;11.11;93.91;100916.47;4992492;28;20064;-64
2022/09/20 07:36:11;;;;;;;2.80;1.80;;;;;;;11.13;92.73;100908.28;4992187;28;20133;-65
2022/09/20 07:38:37;;;;;;;4.72;1.60;;;;;;;11.16;91.94;100921.31;4992361;28;20038;-66
2022/09/20 07:41:03;;;;;;;4.72;1.67;;;;;;;11.22;92.20;100922.53;4992082;28;20042;-65
2022/09/20 07:43:29;;;;;;;7.15;1.92;;;;;;;11.29;91.62;100920.88;4992218;28;20105;-66
2022/09/20 07:45:56;;;;;;;2.75;1.70;;;;;;;11.33;91.93;100923.03;4992293;28;20481;-65
2022/09/20 07:48:24;;;;;;;2.17;1.77;;;;;;;11.35;91.03;100931.72;4992371;28;20125;-65
2022/09/20 07:50:55;;;;;;;2.47;1.38;;;;;;;11.40;92.16;100931.22;4991284;28;20065;-64
2022/09/20 07:53:20;;;;;;;3.22;1.70;;;;;;;11.47;90.95;100923.41;4992228;28;20101;-63
2022/09/20 07:56:04;;;;;;;2.25;1.55;;;;;;;11.70;90.85;100924.47;4974873;28;20038;-63
2022/09/20 07:58:32;;;;;;;4.43;1.75;;;;;;;11.79;89.67;100917.31;4991116;28;20133;-64
2022/09/20 08:01:03;;;;;;;7.03;2.13;;;;;;;11.81;91.45;100934.03;4991445;28;20034;-64
2022/09/20 08:03:30;;;;;;;4.50;1.60;;;;;;;11.81;88.90;100923.38;4991904;28;20444;-66
2022/09/20 08:06:00;;;;;;;4.50;2.00;;;;;;;11.84;89.95;100920.34;4992051;28;20050;-65
2022/09/20 08:08:28;;;;;;;5.63;2.00;;;;;;;11.98;88.60;100921.53;4992008;28;20838;-63
2022/09/20 08:11:01;;;;;;;4.38;1.35;;;;;;;12.14;89.26;100918.88;4991731;28;20132;-65
2022/09/20 08:13:28;;;;;;;7.25;1.70;;;;;;;12.31;87.87;100931.22;4990859;28;20557;-64
2022/09/20 08:16:01;;;;;;;3.05;1.98;;;;;;;12.38;86.56;100936.72;4991912;28;20504;-65
2022/09/20 08:18:27;;;;;;;5.13;2.40;;;;;;;12.47;86.45;100939.22;4991991;28;20042;-65
2022/09/20 08:20:54;;;;;;;6.25;1.70;;;;;;;12.55;80.12;100941.06;4991572;28;20041;-65
2022/09/20 08:23:19;;;;;;;3.17;1.70;;;;;;;12.61;82.40;100953.75;4991698;28;20050;-65
2022/09/20 08:25:46;;;;;;;2.72;1.45;;;;;;;12.68;83.07;100949.38;4991803;28;20048;-67
2022/09/20 08:28:11;;;;;;;2.45;1.50;;;;;;;12.72;79.28;100952.56;4991777;28;20030;-65
2022/09/20 08:30:36;;;;;;;4.78;1.50;;;;;;;12.81;81.48;100943.50;4991576;28;20557;-65
2022/09/20 08:33:03;;;;;;;8.48;2.10;;;;;;;12.85;83.09;100944.84;4991779;28;20400;-65
2022/09/20 08:35:28;;;;;;;7.07;1.70;;;;;;;13.03;80.49;100953.47;4991678;28;20465;-64
2022/09/20 08:37:54;;;;;;;2.90;1.30;;;;;;;13.12;79.40;100945.44;4991709;28;20073;-65
2022/09/20 08:40:22;;;;;;;3.55;1.25;;;;;;;13.12;84.21;100934.72;4991579;28;20044;-66
2022/09/20 08:42:48;;;;;;;1.70;1.30;;;;;;;13.19;76.96;100943.72;4991738;28;20041;-65
2022/09/20 08:45:18;;;;;;;1.83;1.30;;;;;;;13.28;76.62;100940.88;4991588;28;20039;-65
2022/09/20 08:47:52;;;;;;;2.95;1.60;;;;;;;13.43;78.11;100940.13;4990446;28;20105;-65
2022/09/20 08:50:19;;;;;;;3.22;1.27;;;;;;;13.44;74.50;100944.50;4991242;28;20081;-65
2022/09/20 08:52:52;;;;;;;3.15;1.15;;;;;;;13.65;74.31;100934.00;4990395;28;20057;-66
2022/09/20 08:55:21;;;;;;;3.53;1.05;;;;;;;13.74;73.89;100937.44;4991564;28;20054;-66
2022/09/20 08:57:49;;;;;;;2.10;0.85;;;;;;;13.85;74.95;100942.41;4991565;28;20039;-65
2022/09/20 09:00:18;;;;;;;2.47;1.00;;;;;;;13.94;73.39;100940.50;4990054;28;20038;-65
2022/09/20 09:02:43;;;;;;;5.38;1.02;;;;;;;14.10;73.44;100941.22;4990238;28;20497;-66
2022/09/20 09:05:31;;;;;;;2.83;0.90;;;;;;;14.27;70.92;100936.53;4991384;28;20038;-65
2022/09/20 09:07:59;;;;;;;1.60;0.75;;;;;;;14.43;69.87;100940.13;4992963;28;20405;-66
2022/09/20 09:10:33;;;;;;;3.30;0.90;;;;;;;14.17;64.93;100935.97;4993557;28;20034;-66
2022/09/20 09:12:59;;;;;;;4.18;1.17;;;;;;;14.36;68.50;100934.66;4995007;28;20038;-66
2022/09/20 09:15:34;;;;;;;2.78;1.10;;;;;;;14.53;72.14;100929.97;4994744;28;20042;-66
2022/09/20 09:18:01;;;;;;;5.97;1.25;;;;;;;14.50;68.39;100930.34;4994910;28;20042;-67
2022/09/20 09:20:26;;;;;;;3.47;1.15;;;;;;;14.81;70.46;100931.03;4993492;28;20101;-66
2022/09/20 09:23:07;;;;;;;4.95;1.20;;;;;;;14.93;68.70;100926.88;4994861;28;20468;-68
2022/09/20 09:25:38;;;;;;;3.72;0.98;;;;;;;15.22;68.18;100927.88;4994904;28;20045;-65
2022/09/20 09:28:13;;;;;;;3.35;1.00;;;;;;;15.35;64.19;100930.72;4977319;28;20073;-65
2022/09/20 09:30:41;;;;;;;2.00;0.70;;;;;;;15.35;59.11;100925.34;4993307;28;20042;-64
2022/09/20 09:33:30;;;;;;;1.98;0.75;;;;;;;15.63;59.99;100930.88;4994629;28;20046;-65
2022/09/20 09:36:06;;;;;;;4.28;1.00;;;;;;;15.74;59.42;100921.50;4994520;28;20076;-65
2022/09/20 09:38:37;;;;;;;1.05;0.90;;;;;;;16.08;57.38;100919.97;4994626;28;20128;-63
2022/09/20 09:41:28;;;;;;;5.88;1.10;;;;;;;16.12;53.63;100923.94;4994207;28;20034;-67
2022/09/20 09:44:06;;;;;;;2.33;0.93;;;;;;;16.31;55.94;100914.38;4994429;28;20050;-66
2022/09/20 09:46:33;;;;;;;2.22;0.65;;;;;;;16.22;56.62;100917.19;4994373;28;20486;-65
2022/09/20 09:49:15;;;;;;;4.43;0.98;;;;;;;16.22;57.28;100921.72;4994388;28;20042;-67
2022/09/20 09:52:00;;;;;;;3.75;1.30;;;;;;;16.13;55.96;100917.53;4993999;28;20453;-67
2022/09/20 09:54:30;;;;;;;1.55;0.98;;;;;;;16.20;55.58;100919.25;4994206;28;20113;-65
2022/09/20 09:57:10;;;;;;;1.10;0.73;;;;;;;16.20;55.62;100916.56;4994121;28;20044;-66
2022/09/20 09:59:39;;;;;;;1.58;0.88;;;;;;;16.16;55.90;100917.13;4994233;28;20037;-66
2022/09/20 10:02:51;;;;;;;1.67;0.93;;;;;;;15.95;56.14;100916.13;4992414;28;20556;-66
2022/09/20 10:05:22;;;;;;;1.63;0.80;;;;;;;16.19;56.82;100914.06;4993936;28;20037;-66
2022/09/20 10:08:23;;;;;;;2.60;0.70;;;;;;;16.08;56.43;100918.09;4994092;28;20046;-66
2022/09/20 10:11:18;;;;;;;3.60;1.20;;;;;;;16.29;58.46;100911.88;4993814;28;20054;-67
2022/09/20 10:14:09;;;;;;;4.22;0.82;;;;;;;16.31;56.72;100912.53;4994331;28;20034;-66
2022/09/20 10:16:51;;;;;;;3.78;0.55;;;;;;;16.39;58.83;100916.94;4994024;28;20434;-65
2022/09/20 10:19:48;;;;;;;3.28;1.10;;;;;;;16.42;55.78;100917.34;4992804;28;20142;-67
2022/09/20 10:22:41;;;;;;;1.70;0.90;;;;;;;16.64;53.55;100918.16;4992193;28;20030;-67
2022/09/20 10:25:30;;;;;;;1.45;0.70;;;;;;;16.65;54.27;100916.28;4993706;28;20441;-64
2022/09/20 10:28:02;;;;;;;1.13;0.90;;;;;;;16.52;55.29;100912.47;4992763;28;20022;-66
2022/09/20 10:30:36;;;;;;;1.25;0.85;;;;;;;16.83;54.13;100905.88;4993143;28;20124;-65
2022/09/20 10:33:20;;;;;;;2.08;0.77;;;;;;;17.05;53.26;100901.22;4993432;28;20409;-65
2022/09/20 10:36:03;;;;;;;2.17;0.82;;;;;;;16.97;54.97;100906.78;4993424;28;20034;-63
2022/09/20 10:38:44;;;;;;;2.47;0.88;;;;;;;16.97;54.32;100909.47;4984663;28;20042;-63
2022/09/20 10:44:36;;;;;;;0.70;0.70;;;;;;;16.64;55.94;100906.56;4972826;28;20054;-60
2022/09/20 10:47:24;;;;;;;2.60;0.80;;;;;;;16.48;57.88;100899.59;4992573;28;20139;-65
2022/09/20 10:50:29;;;;;;;0.70;0.60;;;;;;;16.49;57.66;100902.09;4984223;28;20046;-65
2022/09/20 10:53:26;;;;;;;2.17;0.80;;;;;;;16.33;57.19;100899.72;4983072;28;20027;-64
2022/09/20 10:56:16;;;;;;;3.13;0.70;;;;;;;16.10;56.64;100901.78;4981542;28;20390;-64
2022/09/20 10:59:18;;;;;;;5.40;1.05;;;;;;;16.06;56.63;100898.66;4992597;28;20398;-65
2022/09/20 11:02:44;;;;;;;2.50;0.70;;;;;;;15.88;55.02;100900.97;4991921;28;20045;-64
2022/09/20 11:05:40;;;;;;;2.25;0.88;;;;;;;15.78;56.60;100909.38;4970676;28;20074;-64
2022/09/20 11:08:33;;;;;;;1.80;0.55;;;;;;;15.93;58.95;100910.13;4970628;28;20082;-65
2022/09/20 11:11:06;;;;;;;1.75;0.60;;;;;;;16.09;57.48;100908.19;4991086;28;20390;-65
2022/09/20 11:13:50;;;;;;;3.60;0.70;;;;;;;16.29;58.36;100901.13;4991309;28;20049;-63
2022/09/20 11:16:22;;;;;;;1.73;0.60;;;;;;;16.50;56.37;100901.09;4992178;28;20080;-64
2022/09/20 11:18:57;;;;;;;0.57;0.52;;;;;;;16.61;54.08;100899.69;4992208;28;20153;-63
2022/09/20 11:21:37;;;;;;;2.65;0.57;;;;;;;16.85;53.70;100895.75;4991428;28;20433;-65
2022/09/20 11:24:11;;;;;;;1.25;0.68;;;;;;;16.58;51.67;100894.72;4992263;28;20450;-64
2022/09/20 11:26:42;;;;;;;0.93;0.60;;;;;;;17.03;54.98;100892.53;4992215;28;20133;-64
2022/09/20 11:29:15;;;;;;;1.15;0.65;;;;;;;17.32;54.01;100894.91;4992094;28;20038;-64
2022/09/20 11:31:45;;;;;;;3.75;0.77;;;;;;;17.47;53.87;100902.84;4991292;28;20103;-64
2022/09/20 11:34:31;;;;;;;3.75;0.68;;;;;;;17.79;50.10;100898.59;4990927;28;20042;-64
2022/09/20 11:37:02;;;;;;;0.90;0.50;;;;;;;17.88;48.15;100899.25;4992081;28;20031;-64
2022/09/20 11:39:46;;;;;;;0.50;0.50;;;;;;;18.01;48.35;100896.56;4991999;28;20541;-64
2022/09/20 11:42:31;;;;;;;1.55;0.32;;;;;;;17.97;48.22;100898.00;4991408;28;20058;-64
2022/09/20 11:44:57;;;;;;;2.10;0.70;;;;;;;17.70;49.04;100893.59;4992110;28;20073;-64
2022/09/20 11:47:25;;;;;;;1.55;0.55;;;;;;;17.50;48.35;100902.44;4991943;28;20442;-64
2022/09/20 11:50:31;;;;;;;1.35;0.90;;;;;;;17.62;48.47;100903.50;4991594;28;20105;-64
2022/09/20 11:53:22;;;;;;;0.30;0.30;;;;;;;17.98;43.02;100899.66;4991926;28;20493;-64
2022/09/20 11:56:02;;;;;;;0.77;0.40;;;;;;;17.53;43.62;100909.28;4991806;28;20038;-64
2022/09/20 11:58:28;;;;;;;1.38;0.77;;;;;;;17.64;43.39;100897.91;4991902;28;20038;-64
2022/09/20 12:00:57;;;;;;;0.30;0.30;;;;;;;17.13;43.53;100901.06;4990871;28;20109;-63
2022/09/20 12:03:36;;;;;;;0.28;0.28;;;;;;;17.25;43.52;100904.00;4991485;28;20045;-64
2022/09/20 12:06:07;;;;;;;0.20;0.20;;;;;;;17.70;42.66;100899.78;4991736;28;20081;-64
2022/09/20 12:08:36;;;;;;;2.30;0.50;;;;;;;18.52;40.95;100893.25;4991829;28;20108;-61
2022/09/20 12:11:07;;;;;;;1.88;0.47;;;;;;;19.59;40.10;100891.03;4989811;28;20053;-63
2022/09/20 12:13:38;;;;;;;0.93;0.52;;;;;;;20.07;37.41;100875.09;4991650;28;20109;-63
2022/09/20 12:16:06;;;;;;;0.40;0.30;;;;;;;19.62;37.99;100880.59;4991374;28;20034;-63
2022/09/20 12:18:34;;;;;;;0.40;0.40;;;;;;;19.57;39.91;100890.41;4991878;28;20074;-64
2022/09/20 12:21:07;;;;;;;0.88;0.38;;;;;;;19.11;39.42;100881.47;4991518;28;20129;-64
2022/09/20 12:26:05;;;;;;;0.40;0.40;;;;;;;18.79;41.30;100885.13;4985208;28;20031;-64
2022/09/20 12:28:35;;;;;;;0.80;0.40;;;;;;;19.11;41.23;100881.47;4972560;28;20081;-64
2022/09/20 12:31:36;;;;;;;2.00;0.60;;;;;;;19.58;42.62;100892.09;4972323;28;20051;-54
2022/09/20 12:34:01;;;;;;;0.38;0.30;;;;;;;19.44;40.32;100881.31;4972600;28;20069;-56
2022/09/20 12:36:29;;;;;;;2.08;0.50;;;;;;;20.51;40.10;100882.22;4972187;28;20031;-56
2022/09/20 12:39:10;;;;;;;0.40;0.40;;;;;;;21.51;39.05;100890.03;4972494;28;20129;-58
2022/09/20 12:41:56;;;;;;;1.80;0.57;;;;;;;22.34;37.22;100877.50;4972155;28;20046;-57
2022/09/20 12:44:39;;;;;;;2.38;0.43;;;;;;;23.02;36.42;100872.28;4976257;28;20047;-60
2022/09/20 12:47:05;;;;;;;0.50;0.40;;;;;;;22.84;36.12;100875.13;4976451;28;20030;-59
2022/09/20 12:55:37;;;;;;;1.90;0.60;;;;;;;21.39;38.93;100871.03;4977638;28;20093;-56
2022/09/20 12:58:04;;;;;;;0.90;0.32;;;;;;;21.12;38.56;100861.53;4976866;28;20045;-53
2022/09/20 13:00:39;;;;;;;1.13;0.40;;;;;;;20.99;40.28;100859.81;4976376;28;20034;-54
2022/09/20 13:03:13;;;;;;;0.85;0.55;;;;;;;20.56;38.73;100863.44;4976817;28;20565;-57
2022/09/20 13:05:47;;;;;;;1.45;0.60;;;;;;;20.50;40.22;100872.47;4976643;28;20412;-54
2022/09/20 13:08:26;;;;;;;0.85;0.43;;;;;;;19.66;41.73;100871.03;4974661;28;20557;-64
2022/09/20 13:11:12;;;;;;;0.45;0.40;;;;;;;19.55;43.43;100870.84;4975420;28;20041;-63
2022/09/20 13:13:56;;;;;;;1.52;0.90;;;;;;;19.35;43.07;100879.06;4975638;28;20041;-61
2022/09/20 13:16:32;;;;;;;0.90;0.52;;;;;;;18.62;44.31;100877.44;4975435;28;20067;-61
2022/09/20 13:19:17;;;;;;;0.75;0.63;;;;;;;18.41;45.06;100874.97;4975643;28;20030;-60
2022/09/20 13:22:03;;;;;;;0.88;0.35;;;;;;;17.67;47.16;100869.72;4975320;28;20038;-62
2022/09/20 13:24:37;;;;;;;0.60;0.60;;;;;;;17.75;47.82;100875.81;4975425;28;20691;-60
2022/09/20 13:27:12;;;;;;;0.38;0.30;;;;;;;17.02;49.14;100877.41;4975202;28;20096;-64
2022/09/20 13:29:43;;;;;;;0.50;0.40;;;;;;;17.13;50.06;100876.81;4975256;28;20446;-64
2022/09/20 13:32:33;;;;;;;0.40;0.40;;;;;;;17.17;49.15;100877.28;4974972;28;20505;-64
2022/09/20 13:35:21;;;;;;;0.60;0.60;;;;;;;17.25;49.71;100879.78;4980129;28;20042;-61
2022/09/20 13:37:57;;;;;;;0.47;0.40;;;;;;;17.09;49.58;100873.72;4991957;28;20080;-61
2022/09/20 13:40:30;;;;;;;0.68;0.32;;;;;;;17.39;49.51;100864.50;4993598;28;20084;-61
2022/09/20 13:42:58;;;;;;;0.88;0.60;;;;;;;17.72;47.92;100869.97;4994450;28;20463;-61
2022/09/20 13:45:24;;;;;;;0.80;0.57;;;;;;;18.09;48.02;100864.00;4993849;28;20081;-63
2022/09/20 13:47:57;;;;;;;0.52;0.50;;;;;;;18.41;46.90;100861.50;4994255;28;20070;-63
2022/09/20 13:50:25;;;;;;;2.28;0.63;;;;;;;19.45;43.56;100861.38;4993257;28;20125;-64
2022/09/20 13:53:00;;;;;;;1.77;0.60;;;;;;;20.80;41.44;100859.03;4994161;28;20046;-62
2022/09/20 13:55:25;;;;;;;0.40;0.30;;;;;;;21.11;41.72;100858.00;4993961;28;20057;-64
2022/09/20 13:57:52;;;;;;;0.20;0.20;;;;;;;21.22;41.79;100855.59;4993866;28;20022;-61
2022/09/20 14:00:18;;;;;;;0.30;0.30;;;;;;;20.49;41.32;100860.00;4993158;28;20054;-64
2022/09/20 14:02:47;;;;;;;1.00;0.50;;;;;;;20.46;41.30;100857.72;4993965;28;20115;-63
2022/09/20 14:05:18;;;;;;;2.03;0.68;;;;;;;20.00;41.22;100864.34;4993687;28;20038;-63
2022/09/20 14:07:46;;;;;;;1.15;0.63;;;;;;;19.75;41.53;100858.91;4993777;28;20504;-64
2022/09/20 14:10:29;;;;;;;1.40;0.50;;;;;;;18.53;44.06;100856.28;4993233;28;20072;-64
2022/09/20 14:12:57;;;;;;;0.50;0.40;;;;;;;18.62;43.20;100861.25;4993692;28;20061;-63
2022/09/20 14:15:25;;;;;;;0.90;0.50;;;;;;;18.52;45.60;100866.25;4992120;28;20044;-62
2022/09/20 14:17:53;;;;;;;0.47;0.30;;;;;;;18.36;44.93;100862.13;4993565;28;20046;-63
2022/09/20 14:20:18;;;;;;;0.88;0.57;;;;;;;17.76;45.40;100865.84;4992839;28;20045;-64
2022/09/20 14:22:44;;;;;;;0.75;0.32;;;;;;;18.00;46.21;100849.09;4993684;28;20046;-61
2022/09/20 14:25:12;;;;;;;0.80;0.52;;;;;;;17.90;47.10;100862.13;4993311;28;20042;-63
2022/09/20 14:27:38;;;;;;;0.65;0.40;;;;;;;17.96;47.40;100866.69;4987560;28;20077;-62
2022/09/20 14:30:06;;;;;;;0.30;0.30;;;;;;;17.82;47.18;100865.88;5004333;28;20033;-63
2022/09/20 14:32:34;;;;;;;;;;;;;;;17.48;47.93;100858.72;4992269;28;20069;-63
2022/09/20 14:35:03;;;;;;;1.50;0.60;;;;;;;17.53;47.71;100863.50;4990485;28;20285;-63
2022/09/20 14:37:54;;;;;;;0.73;0.50;;;;;;;17.21;49.19;100856.97;4981756;28;20046;-63
2022/09/20 14:40:22;;;;;;;0.82;0.60;;;;;;;17.18;47.21;100855.53;4966047;28;20201;-63
2022/09/20 14:42:52;;;;;;;0.47;0.40;;;;;;;16.94;46.62;100856.88;4973943;28;20042;-63
2022/09/20 14:45:22;;;;;;;0.47;0.47;;;;;;;16.91;47.74;100848.38;4973356;28;20054;-63
2022/09/20 14:47:55;;;;;;;0.73;0.60;;;;;;;16.88;47.37;100856.84;4987740;28;20103;-63
2022/09/20 14:50:33;;;;;;;1.92;0.40;;;;;;;16.75;47.56;100857.59;4992793;28;20117;-63
2022/09/20 14:53:11;;;;;;;1.58;0.90;;;;;;;16.74;48.75;100859.47;4993105;28;20129;-63
2022/09/20 14:55:57;;;;;;;0.25;0.25;;;;;;;16.41;49.77;100859.22;4992956;28;20042;-63
2022/09/20 14:58:24;;;;;;;0.73;0.60;;;;;;;16.26;50.95;100861.19;4989840;28;20046;-63
2022/09/20 15:00:56;;;;;;;0.63;0.45;;;;;;;16.09;52.02;100852.56;4992625;28;20042;-64
2022/09/20 15:03:35;;;;;;;1.15;0.50;;;;;;;15.91;52.89;100865.66;4992502;28;20041;-63
2022/09/20 15:06:01;;;;;;;1.17;0.57;;;;;;;15.83;53.26;100863.09;4992351;28;20044;-62
2022/09/20 15:08:27;;;;;;;1.38;0.35;;;;;;;15.76;53.64;100860.34;4992756;28;20517;-62
2022/09/20 15:10:52;;;;;;;0.40;0.40;;;;;;;15.68;53.78;100861.31;4992516;28;20358;-63
2022/09/20 15:13:18;;;;;;;0.70;0.57;;;;;;;15.73;53.46;100855.38;4992711;28;20038;-62
2022/09/20 15:15:48;;;;;;;1.05;0.50;;;;;;;15.75;54.18;100864.06;4992371;28;20109;-63
2022/09/20 15:18:21;;;;;;;0.77;0.77;;;;;;;15.66;55.76;100857.16;4992936;28;20049;-63
2022/09/20 15:20:49;;;;;;;0.75;0.60;;;;;;;15.54;54.94;100853.28;4992254;28;20130;-62
2022/09/20 15:23:14;;;;;;;1.70;1.10;;;;;;;15.66;55.56;100860.69;4992505;28;20046;-63
2022/09/20 15:25:40;;;;;;;2.25;1.00;;;;;;;15.79;55.44;100856.47;4992358;28;20453;-63
2022/09/20 15:28:06;;;;;;;1.85;1.25;;;;;;;15.82;57.08;100859.59;4992390;28;20536;-62
2022/09/20 15:30:32;;;;;;;3.58;1.30;;;;;;;15.83;54.97;100858.56;4992263;28;20038;-63
2022/09/20 15:32:57;;;;;;;1.17;0.82;;;;;;;15.84;55.61;100849.47;4992350;28;20408;-61
2022/09/20 15:35:23;;;;;;;2.45;1.55;;;;;;;15.96;55.10;100850.63;4992249;28;20050;-63
2022/09/20 15:37:48;;;;;;;3.25;1.92;;;;;;;15.96;55.60;100847.94;4992322;28;20173;-61
2022/09/20 15:40:14;;;;;;;1.63;1.38;;;;;;;15.94;55.24;100841.94;4991847;28;20512;-63
2022/09/20 15:42:40;;;;;;;0.70;0.60;;;;;;;15.74;52.87;100846.28;4990850;28;20562;-63
2022/09/20 15:45:10;;;;;;;4.43;1.08;;;;;;;15.77;54.29;100837.84;4991993;28;20046;-63
2022/09/20 15:47:37;;;;;;;2.55;0.90;;;;;;;15.74;53.89;100851.66;4992075;28;20391;-63
2022/09/20 15:50:06;;;;;;;2.55;0.88;;;;;;;15.75;53.80;100850.63;4992043;28;20037;-62
2022/09/20 15:52:33;;;;;;;1.73;0.90;;;;;;;15.42;53.53;100853.78;4992010;28;20038;-63
2022/09/20 15:54:59;;;;;;;0.80;0.80;;;;;;;15.44;56.17;100861.66;4992029;28;20101;-63
2022/09/20 15:57:26;;;;;;;1.23;0.60;;;;;;;15.33;56.98;100857.63;4991854;28;20117;-63
2022/09/20 15:59:51;;;;;;;1.48;0.70;;;;;;;15.26;57.62;100848.66;4991945;28;20129;-63
2022/09/20 16:02:17;;;;;;;1.38;0.73;;;;;;;15.18;58.73;100848.75;4991735;28;20113;-63
2022/09/20 16:04:42;;;;;;;0.68;0.68;;;;;;;15.07;58.90;100860.00;4990641;28;20049;-63
2022/09/20 16:07:09;;;;;;;2.08;0.60;;;;;;;15.01;60.00;100848.16;4991757;28;20042;-62
2022/09/20 16:09:36;;;;;;;1.92;1.10;;;;;;;15.02;60.79;100863.22;4991788;28;20409;-61
2022/09/20 16:12:03;;;;;;;1.65;0.90;;;;;;;14.99;60.91;100860.06;4991500;28;20042;-63
2022/09/20 16:14:29;;;;;;;7.78;4.05;;;;;;;14.95;60.53;100869.53;4990516;28;20134;-63
2022/09/20 16:16:54;;;;;;;1.70;0.73;;;;;;;14.97;61.75;100868.31;4991638;28;20083;-62
2022/09/20 16:19:19;;;;;;;5.93;2.97;;;;;;;15.04;62.67;100873.78;4995330;28;20038;-63
2022/09/20 16:21:53;;;;;;;4.22;1.48;;;;;;;15.01;61.59;100871.47;4995539;28;20457;-63
2022/09/20 16:24:23;;;;;;;3.38;1.80;;;;;;;15.05;62.31;100876.25;4995588;28;20038;-63
2022/09/20 16:26:49;;;;;;;1.83;1.08;;;;;;;15.01;63.56;100875.00;4995975;28;20038;-63
2022/09/20 16:29:15;;;;;;;2.67;1.10;;;;;;;15.00;63.84;100878.69;4996145;28;20080;-63
2022/09/20 16:31:49;;;;;;;2.00;1.08;;;;;;;14.94;62.02;100879.44;4995435;28;20494;-62
2022/09/20 16:34:18;;;;;;;1.10;0.88;;;;;;;14.89;64.57;100881.84;4995778;28;20050;-63
2022/09/20 16:36:58;;;;;;;1.17;0.82;;;;;;;14.86;64.21;100880.34;4994191;28;20120;-62
2022/09/20 16:39:26;;;;;;;1.75;1.08;;;;;;;14.82;65.55;100886.28;4995542;28;20034;-63